createdAt,value
2022-10-09T00:00:24.932Z,1.80
2022-10-09T00:02:51.747Z,2.25
2022-10-09T00:05:18.552Z,1.73
2022-10-09T00:07:45.044Z,1.73
2022-10-09T00:10:11.756Z,1.90
2022-10-09T00:12:38.364Z,1.63
2022-10-09T00:15:05.165Z,1.85
2022-10-09T00:17:31.609Z,1.70
2022-10-09T00:19:58.090Z,1.80
2022-10-09T00:22:24.619Z,1.95
2022-10-09T00:24:51.208Z,1.90
2022-10-09T00:27:17.982Z,2.00
2022-10-09T00:29:44.516Z,1.77
2022-10-09T00:32:11.088Z,2.00
2022-10-09T00:34:37.558Z,1.60
2022-10-09T00:37:04.118Z,1.95
2022-10-09T00:39:30.987Z,1.90
2022-10-09T00:41:57.434Z,1.52
2022-10-09T00:44:51.685Z,1.50
2022-10-09T00:47:29.116Z,1.80
2022-10-09T00:50:01.424Z,1.70
2022-10-09T00:52:28.370Z,1.75
2022-10-09T00:54:56.882Z,1.52
2022-10-09T00:57:24.632Z,1.80
2022-10-09T00:59:51.322Z,1.70
2022-10-09T01:02:17.888Z,1.63
2022-10-09T01:04:44.390Z,1.70
2022-10-09T01:07:22.605Z,1.65
2022-10-09T01:09:58.150Z,1.60
2022-10-09T01:12:49.522Z,1.63
2022-10-09T01:15:24.859Z,2.00
2022-10-09T01:18:12.836Z,1.40
2022-10-09T01:20:50.001Z,1.73
2022-10-09T01:23:38.575Z,1.88
2022-10-09T01:26:23.538Z,1.70
2022-10-09T01:28:55.401Z,1.70
2022-10-09T01:31:25.165Z,1.50
2022-10-09T01:33:52.303Z,1.60
2022-10-09T01:36:21.486Z,2.00
2022-10-09T01:38:48.565Z,1.40
2022-10-09T01:41:15.588Z,1.60
2022-10-09T01:43:42.081Z,1.40
2022-10-09T01:46:22.378Z,1.80
2022-10-09T01:49:16.819Z,1.70
2022-10-09T01:51:51.604Z,1.55
2022-10-09T01:54:28.399Z,1.27
2022-10-09T01:56:58.120Z,1.40
2022-10-09T01:59:27.471Z,1.45
2022-10-09T02:01:56.155Z,1.55
2022-10-09T02:04:26.322Z,1.40
2022-10-09T02:06:54.326Z,1.60
2022-10-09T02:09:22.360Z,1.40
2022-10-09T02:11:54.794Z,1.50
2022-10-09T02:14:21.414Z,1.40
2022-10-09T02:16:55.432Z,1.50
2022-10-09T02:19:37.516Z,1.40
2022-10-09T02:22:21.945Z,1.60
2022-10-09T02:24:48.766Z,1.48
2022-10-09T02:27:16.465Z,1.30
2022-10-09T02:29:45.307Z,1.30
2022-10-09T02:32:12.837Z,1.30
2022-10-09T02:34:39.507Z,1.20
2022-10-09T02:37:06.641Z,1.50
2022-10-09T02:39:33.366Z,1.60
2022-10-09T02:41:59.807Z,1.50
2022-10-09T02:44:26.427Z,1.13
2022-10-09T02:46:52.984Z,1.50
2022-10-09T02:49:19.846Z,1.83
2022-10-09T02:51:46.344Z,1.55
2022-10-09T02:54:14.037Z,1.45
2022-10-09T02:56:40.552Z,1.30
2022-10-09T02:59:07.611Z,1.40
2022-10-09T03:01:34.642Z,1.40
2022-10-09T03:04:01.249Z,1.35
2022-10-09T03:06:28.833Z,1.48
2022-10-09T03:08:55.987Z,1.50
2022-10-09T03:11:24.457Z,1.58
2022-10-09T03:13:51.415Z,1.40
2022-10-09T03:16:21.038Z,1.42
2022-10-09T03:18:48.740Z,1.67
2022-10-09T03:21:18.659Z,1.77
2022-10-09T03:23:45.571Z,1.30
2022-10-09T03:26:15.372Z,1.60
2022-10-09T03:28:44.559Z,1.30
2022-10-09T03:31:22.549Z,1.30
2022-10-09T03:33:54.152Z,1.17
2022-10-09T03:36:20.862Z,1.38
2022-10-09T03:38:47.339Z,1.48
2022-10-09T03:41:13.817Z,1.17
2022-10-09T03:43:40.259Z,1.38
2022-10-09T03:46:08.103Z,1.48
2022-10-09T03:48:35.466Z,1.50
2022-10-09T03:51:02.979Z,1.77
2022-10-09T03:53:29.535Z,1.48
2022-10-09T03:55:56.033Z,1.27
2022-10-09T03:58:22.690Z,1.63
2022-10-09T04:00:52.867Z,1.23
2022-10-09T04:03:20.695Z,1.50
2022-10-09T04:05:47.849Z,1.30
2022-10-09T04:08:14.418Z,1.20
2022-10-09T04:10:41.319Z,1.55
2022-10-09T04:13:11.047Z,1.30
2022-10-09T04:15:37.713Z,1.55
2022-10-09T04:18:05.025Z,1.50
2022-10-09T04:20:32.163Z,1.38
2022-10-09T04:22:58.743Z,1.05
2022-10-09T04:25:25.421Z,1.50
2022-10-09T04:27:51.936Z,1.38
2022-10-09T04:30:18.481Z,1.33
2022-10-09T04:32:44.987Z,1.52
2022-10-09T04:37:52.290Z,1.33
2022-10-09T04:40:18.785Z,1.30
2022-10-09T04:42:53.307Z,1.48
2022-10-09T04:45:19.773Z,1.38
2022-10-09T04:47:46.240Z,1.30
2022-10-09T04:50:12.717Z,1.27
2022-10-09T04:52:39.169Z,1.30
2022-10-09T04:55:06.170Z,1.38
2022-10-09T05:00:12.204Z,1.48
2022-10-09T05:02:38.707Z,1.35
2022-10-09T05:05:05.444Z,1.38
2022-10-09T05:07:32.122Z,1.30
2022-10-09T05:09:59.329Z,1.67
2022-10-09T05:12:25.957Z,1.25
2022-10-09T05:17:32.951Z,1.33
2022-10-09T05:19:59.447Z,1.70
2022-10-09T05:22:26.131Z,1.40
2022-10-09T05:24:52.609Z,1.20
2022-10-09T05:27:19.087Z,1.25
2022-10-09T05:29:45.651Z,1.50
2022-10-09T05:32:12.203Z,1.30
2022-10-09T05:34:39.627Z,1.10
2022-10-09T05:37:06.643Z,1.70
2022-10-09T05:42:16.239Z,1.50
2022-10-09T05:44:42.707Z,1.40
2022-10-09T05:47:09.166Z,1.35
2022-10-09T05:49:35.746Z,1.25
2022-10-09T05:52:02.407Z,1.10
2022-10-09T05:54:29.016Z,1.50
2022-10-09T05:56:55.553Z,1.40
2022-10-09T06:04:45.631Z,1.35
2022-10-09T06:07:12.101Z,1.25
2022-10-09T06:09:38.567Z,1.50
2022-10-09T06:12:05.077Z,1.50
2022-10-09T06:14:31.749Z,1.35
2022-10-09T06:16:59.121Z,1.45
2022-10-09T06:19:26.131Z,1.15
2022-10-09T06:21:52.751Z,1.55
2022-10-09T06:24:29.072Z,1.35
2022-10-09T06:26:57.440Z,1.27
2022-10-09T06:29:24.200Z,1.40
2022-10-09T06:31:50.723Z,1.25
2022-10-09T06:34:17.940Z,1.15
2022-10-09T06:36:44.443Z,1.23
2022-10-09T06:39:11.196Z,1.50
2022-10-09T06:41:37.768Z,1.30
2022-10-09T06:44:06.042Z,1.30
2022-10-09T06:46:38.198Z,1.27
2022-10-09T06:49:06.194Z,1.30
2022-10-09T06:51:33.918Z,1.38
2022-10-09T06:54:03.021Z,1.23
2022-10-09T06:56:31.813Z,1.33
2022-10-09T06:59:14.832Z,1.17
2022-10-09T07:01:41.363Z,1.30
2022-10-09T07:04:11.979Z,1.25
2022-10-09T07:09:08.711Z,1.30
2022-10-09T07:11:42.918Z,1.08
2022-10-09T07:16:52.206Z,1.13
2022-10-09T07:19:19.023Z,1.40
2022-10-09T07:21:48.699Z,1.30
2022-10-09T07:24:16.747Z,1.45
2022-10-09T07:26:46.123Z,1.23
2022-10-09T07:29:14.850Z,1.35
2022-10-09T07:31:41.389Z,1.27
2022-10-09T07:34:08.265Z,1.17
2022-10-09T07:36:34.893Z,1.40
2022-10-09T07:39:02.280Z,1.30
2022-10-09T07:41:30.093Z,1.40
2022-10-09T07:43:57.567Z,1.40
2022-10-09T07:46:27.664Z,1.60
2022-10-09T07:48:57.419Z,1.35
2022-10-09T07:51:29.135Z,1.40
2022-10-09T07:53:57.324Z,1.33
2022-10-09T07:56:30.024Z,1.70
2022-10-09T07:58:58.880Z,1.40
2022-10-09T08:01:29.530Z,1.42
2022-10-09T08:06:37.578Z,1.30
2022-10-09T08:09:06.188Z,1.50
2022-10-09T08:11:33.322Z,1.70
2022-10-09T08:14:00.765Z,1.17
2022-10-09T08:16:28.010Z,1.48
2022-10-09T08:21:38.476Z,1.40
2022-10-09T08:24:13.056Z,1.40
2022-10-09T08:26:39.611Z,1.15
2022-10-09T08:29:08.460Z,1.30
2022-10-09T08:31:35.003Z,1.50
2022-10-09T08:34:03.403Z,1.52
2022-10-09T08:36:31.059Z,1.27
2022-10-09T08:38:57.940Z,1.45
2022-10-09T08:41:40.010Z,1.30
2022-10-09T08:44:10.642Z,1.38
2022-10-09T08:47:00.131Z,1.33
2022-10-09T08:49:41.831Z,1.13
2022-10-09T08:52:26.609Z,1.50
2022-10-09T08:54:55.809Z,1.15
2022-10-09T08:57:23.503Z,1.42
2022-10-09T08:59:50.149Z,1.33
2022-10-09T09:02:31.595Z,1.20
2022-10-09T09:05:16.711Z,1.25
2022-10-09T09:08:11.242Z,1.17
2022-10-09T09:10:42.644Z,1.45
2022-10-09T09:13:30.840Z,1.35
2022-10-09T09:16:20.427Z,1.40
2022-10-09T09:19:11.046Z,1.48
2022-10-09T09:24:17.567Z,1.20
2022-10-09T09:26:48.206Z,1.10
2022-10-09T09:29:18.944Z,1.08
2022-10-09T09:31:48.262Z,1.23
2022-10-09T09:34:22.334Z,1.10
2022-10-09T09:36:53.051Z,1.42
2022-10-09T09:40:15.638Z,1.15
2022-10-09T09:42:09.656Z,1.35
2022-10-09T09:44:45.096Z,1.20
2022-10-09T09:47:26.005Z,1.17
2022-10-09T09:50:00.768Z,1.17
2022-10-09T09:52:31.677Z,1.33
2022-10-09T09:54:59.088Z,1.17
2022-10-09T09:57:40.655Z,1.38
2022-10-09T10:00:17.429Z,1.20
2022-10-09T10:02:44.429Z,1.23
2022-10-09T10:05:26.211Z,1.30
2022-10-09T10:07:53.400Z,1.25
2022-10-09T10:10:25.294Z,1.50
2022-10-09T10:12:52.673Z,1.30
2022-10-09T10:15:26.431Z,1.27
2022-10-09T10:18:03.240Z,1.70
2022-10-09T10:20:46.430Z,1.42
2022-10-09T10:23:57.191Z,1.52
2022-10-09T10:26:28.294Z,2.00
2022-10-09T10:29:08.292Z,1.55
2022-10-09T10:31:56.358Z,2.00
2022-10-09T10:34:35.403Z,2.35
2022-10-09T10:37:20.913Z,2.13
2022-10-09T10:40:28.320Z,2.25
2022-10-09T10:43:10.060Z,1.92
2022-10-09T10:45:58.419Z,2.13
2022-10-09T10:48:31.531Z,2.10
2022-10-09T10:51:19.458Z,1.83
2022-10-09T10:53:45.977Z,2.13
2022-10-09T10:56:46.420Z,1.55
2022-10-09T10:59:39.541Z,2.10
2022-10-09T11:02:12.712Z,1.88
2022-10-09T11:05:07.714Z,1.70
2022-10-09T11:07:46.935Z,2.00
2022-10-09T11:10:29.978Z,1.38
2022-10-09T11:13:04.898Z,1.63
2022-10-09T11:15:43.291Z,1.40
2022-10-09T11:18:28.388Z,1.58
2022-10-09T11:21:12.959Z,1.15
2022-10-09T11:23:45.354Z,1.30
2022-10-09T11:26:32.163Z,1.30
2022-10-09T11:29:10.858Z,1.08
2022-10-09T11:31:52.574Z,1.27
2022-10-09T11:34:26.854Z,1.10
2022-10-09T11:36:53.669Z,1.10
2022-10-09T11:39:23.608Z,1.27
2022-10-09T11:41:52.890Z,1.05
2022-10-09T11:44:37.914Z,1.30
2022-10-09T11:47:07.668Z,1.23
2022-10-09T11:49:57.430Z,0.90
2022-10-09T11:52:30.085Z,1.08
2022-10-09T11:55:08.088Z,1.30
2022-10-09T11:57:35.559Z,1.20
2022-10-09T12:00:10.275Z,1.20
2022-10-09T12:02:39.889Z,1.10
2022-10-09T12:05:39.034Z,1.13
2022-10-09T12:08:19.513Z,1.25
2022-10-09T12:10:53.239Z,1.30
2022-10-09T12:13:39.719Z,0.98
2022-10-09T12:16:10.124Z,1.13
2022-10-09T12:21:16.646Z,1.08
2022-10-09T12:23:47.308Z,1.02
2022-10-09T12:31:47.160Z,0.90
2022-10-09T12:37:11.597Z,1.23
2022-10-09T12:42:23.666Z,0.90
2022-10-09T12:44:54.117Z,1.00
2022-10-09T12:50:16.374Z,1.00
2022-10-09T12:52:59.276Z,0.90
2022-10-09T12:55:43.902Z,0.90
2022-10-09T12:58:19.165Z,1.05
2022-10-09T13:00:51.056Z,0.88
2022-10-09T13:03:26.252Z,0.82
2022-10-09T13:05:53.440Z,0.80
2022-10-09T13:08:43.223Z,0.90
2022-10-09T13:11:20.522Z,0.90
2022-10-09T13:13:59.746Z,1.02
2022-10-09T13:16:26.727Z,0.90
2022-10-09T13:21:42.261Z,1.08
2022-10-09T13:24:10.401Z,0.90
2022-10-09T13:26:42.345Z,1.92
2022-10-09T13:29:16.785Z,3.60
2022-10-09T13:34:29.060Z,5.20
2022-10-09T13:36:56.631Z,5.50
2022-10-09T13:39:23.167Z,5.20
2022-10-09T13:41:55.707Z,5.18
2022-10-09T13:44:22.341Z,4.50
2022-10-09T13:46:48.908Z,4.32
2022-10-09T13:49:16.011Z,3.92
2022-10-09T13:51:42.914Z,3.67
2022-10-09T13:54:09.415Z,3.35
2022-10-09T13:56:35.920Z,3.40
2022-10-09T14:01:43.455Z,2.50
2022-10-09T14:04:10.199Z,2.20
2022-10-09T14:06:41.258Z,2.13
2022-10-09T14:09:11.915Z,2.30
2022-10-09T14:16:46.778Z,1.83
2022-10-09T14:19:15.241Z,1.90
2022-10-09T14:21:41.771Z,1.92
2022-10-09T14:24:08.435Z,2.08
2022-10-09T14:26:35.122Z,1.90
2022-10-09T14:31:43.309Z,1.70
2022-10-09T14:34:13.082Z,1.58
2022-10-09T14:36:40.066Z,1.40
2022-10-09T14:39:08.437Z,1.58
2022-10-09T14:44:15.731Z,1.60
2022-10-09T14:46:42.390Z,1.65
2022-10-09T14:49:10.597Z,1.40
2022-10-09T14:54:20.243Z,2.08
2022-10-09T14:59:28.109Z,3.83
2022-10-09T15:01:54.625Z,4.82
2022-10-09T15:04:21.123Z,7.10
2022-10-09T15:06:47.670Z,7.88
2022-10-09T15:09:14.113Z,7.57
2022-10-09T15:11:48.478Z,7.03
2022-10-09T15:14:18.803Z,7.68
2022-10-09T15:16:45.525Z,6.60
2022-10-09T15:19:19.806Z,6.72
2022-10-09T15:21:46.363Z,5.50
2022-10-09T15:24:16.563Z,5.88
2022-10-09T15:34:30.940Z,4.03
2022-10-09T15:42:18.681Z,3.60
2022-10-09T15:44:45.245Z,3.22
2022-10-09T15:47:16.611Z,3.22
2022-10-09T15:49:50.152Z,2.90
2022-10-09T15:54:59.245Z,2.60
2022-10-09T16:02:32.953Z,2.53
2022-10-09T16:07:41.336Z,2.20
2022-10-09T16:10:08.035Z,2.40
2022-10-09T16:15:27.135Z,2.00
2022-10-09T16:17:54.353Z,2.22
2022-10-09T16:20:20.839Z,2.25
2022-10-09T16:22:51.301Z,2.13
2022-10-09T16:25:18.204Z,2.15
2022-10-09T16:27:44.647Z,2.20
2022-10-09T16:30:13.767Z,1.98
2022-10-09T16:32:40.527Z,1.92
2022-10-09T16:37:55.561Z,2.20
2022-10-09T16:40:32.655Z,1.73
2022-10-09T16:43:08.468Z,1.83
2022-10-09T16:48:16.459Z,2.05
2022-10-09T16:50:43.130Z,2.10
2022-10-09T16:53:11.930Z,1.75
2022-10-09T16:55:39.418Z,1.67
2022-10-09T16:58:05.989Z,2.00
2022-10-09T17:08:30.621Z,1.52
2022-10-09T17:10:57.190Z,1.48
2022-10-09T17:13:23.772Z,1.80
2022-10-09T17:15:50.823Z,1.60
2022-10-09T17:18:17.401Z,1.70
2022-10-09T17:26:25.430Z,1.33
2022-10-09T17:31:34.409Z,1.50
2022-10-09T17:34:03.197Z,1.48
2022-10-09T17:36:32.411Z,1.58
2022-10-09T17:38:59.358Z,1.52
2022-10-09T17:41:27.056Z,1.30
2022-10-09T17:43:54.492Z,1.60
2022-10-09T17:46:22.425Z,1.50
2022-10-09T17:51:42.415Z,1.50
2022-10-09T17:54:14.052Z,1.50
2022-10-09T17:59:22.036Z,1.65
2022-10-09T18:01:56.466Z,1.55
2022-10-09T18:04:22.937Z,1.67
2022-10-09T18:06:57.082Z,1.50
2022-10-09T18:17:15.265Z,1.30
2022-10-09T18:19:41.835Z,1.40
2022-10-09T18:22:08.290Z,1.35
2022-10-09T18:24:34.898Z,1.45
2022-10-09T18:27:01.468Z,1.40
2022-10-09T18:29:28.199Z,1.40
2022-10-09T18:34:47.669Z,1.30
2022-10-09T18:37:16.465Z,1.42
2022-10-09T18:39:53.365Z,1.52
2022-10-09T18:42:19.990Z,1.55
2022-10-09T18:44:47.172Z,1.40
2022-10-09T18:47:18.695Z,1.65
2022-10-09T18:49:54.293Z,1.45
2022-10-09T18:52:21.055Z,1.70
2022-10-09T18:54:50.613Z,1.60
2022-10-09T18:57:17.662Z,1.47
2022-10-09T19:02:26.410Z,1.40
2022-10-09T19:04:56.017Z,1.20
2022-10-09T19:10:09.047Z,1.52
2022-10-09T19:12:35.592Z,1.17
2022-10-09T19:15:02.174Z,1.45
2022-10-09T19:17:28.720Z,1.40
2022-10-09T19:19:55.256Z,1.20
2022-10-09T19:22:31.415Z,1.27
2022-10-09T19:24:58.236Z,1.33
2022-10-09T19:27:26.688Z,1.30
2022-10-09T19:29:53.517Z,1.08
2022-10-09T19:32:23.823Z,1.33
2022-10-09T19:34:55.577Z,1.50
2022-10-09T19:37:26.067Z,1.58
2022-10-09T19:39:55.573Z,1.45
2022-10-09T19:42:22.866Z,1.55
2022-10-09T19:44:49.389Z,1.40
2022-10-09T19:55:03.965Z,1.23
2022-10-09T19:57:38.423Z,1.52
2022-10-09T20:00:17.399Z,1.30
2022-10-09T20:02:44.068Z,1.30
2022-10-09T20:05:10.768Z,1.52
2022-10-09T20:10:18.909Z,1.67
2022-10-09T20:12:45.389Z,1.58
2022-10-09T20:15:12.019Z,1.60
2022-10-09T20:17:38.520Z,1.30
2022-10-09T20:20:06.492Z,1.95
2022-10-09T20:25:12.184Z,1.40
2022-10-09T20:27:38.809Z,1.67
2022-10-09T20:30:05.875Z,1.33
2022-10-09T20:32:42.241Z,1.67
2022-10-09T20:35:23.113Z,1.35
2022-10-09T20:37:54.181Z,1.50
2022-10-09T20:40:20.686Z,2.20
2022-10-09T20:45:28.127Z,1.13
2022-10-09T20:50:52.291Z,1.52
2022-10-09T20:53:18.823Z,1.50
2022-10-09T20:55:45.515Z,1.63
2022-10-09T20:58:12.177Z,1.60
2022-10-09T21:00:43.172Z,1.60
2022-10-09T21:03:12.475Z,1.35
2022-10-09T21:05:43.643Z,1.40
2022-10-09T21:08:10.527Z,1.20
2022-10-09T21:10:45.093Z,1.35
2022-10-09T21:13:12.179Z,1.40
2022-10-09T21:15:46.842Z,1.35
2022-10-09T21:18:14.924Z,1.40
2022-10-09T21:20:44.261Z,1.70
2022-10-09T21:23:12.457Z,1.58
2022-10-09T21:25:39.276Z,1.40
2022-10-09T21:28:05.891Z,1.30
2022-10-09T21:33:19.557Z,1.70
2022-10-09T21:35:50.009Z,1.50
2022-10-09T21:40:44.837Z,1.52
2022-10-09T21:43:12.254Z,1.75
2022-10-09T21:45:53.406Z,1.70
2022-10-09T21:53:33.264Z,1.42
2022-10-09T21:58:36.415Z,1.42
2022-10-09T22:03:55.649Z,1.60
2022-10-09T22:14:19.414Z,1.40
2022-10-09T22:19:26.835Z,1.30
2022-10-09T22:21:55.478Z,1.40
2022-10-09T22:24:30.466Z,1.35
2022-10-09T22:26:57.482Z,1.58
2022-10-09T22:29:25.263Z,1.33
2022-10-09T22:31:51.858Z,1.50
2022-10-09T22:34:19.388Z,1.42
2022-10-09T22:39:27.398Z,1.35
2022-10-09T22:41:54.222Z,1.52
2022-10-09T22:44:20.988Z,1.30
2022-10-09T22:46:59.447Z,1.20
2022-10-09T22:49:25.990Z,1.58
2022-10-09T22:51:52.516Z,1.50
2022-10-09T22:54:32.679Z,1.23
2022-10-09T22:57:12.290Z,1.10
2022-10-09T22:59:38.777Z,1.40
2022-10-09T23:05:00.368Z,1.45
2022-10-09T23:07:35.818Z,1.67
2022-10-09T23:10:02.306Z,1.50
2022-10-09T23:12:28.761Z,1.20
2022-10-09T23:14:55.204Z,1.50
2022-10-09T23:20:02.048Z,1.35
2022-10-09T23:22:35.468Z,1.48
2022-10-09T23:25:02.646Z,1.40
2022-10-09T23:27:29.464Z,1.50
2022-10-09T23:29:55.926Z,1.42
2022-10-09T23:32:22.400Z,1.50
2022-10-09T23:37:29.826Z,1.20
2022-10-09T23:39:56.306Z,1.50
2022-10-09T23:45:03.714Z,1.40
2022-10-09T23:47:38.621Z,1.60
2022-10-09T23:50:06.483Z,1.40
2022-10-09T23:55:19.250Z,1.55
2022-10-09T23:57:45.690Z,1.70
